sensor_id;sensor_type;location;lat;lon;timestamp;temperature;humidity
48575;DHT22;34352;51.084;3.712;2024-01-15T00:15:19;3.60;91.30
48575;DHT22;34352;51.084;3.712;2024-01-15T00:18:05;2.60;90.30
48575;DHT22;34352;51.084;3.712;2024-01-15T00:20:53;3.30;91.60
48575;DHT22;34352;51.084;3.712;2024-01-15T00:28:58;3.60;90.60
48575;DHT22;34352;51.084;3.712;2024-01-15T00:44:42;3.60;83.50
48575;DHT22;34352;51.084;3.712;2024-01-15T00:47:11;3.40;83.70
48575;DHT22;34352;51.084;3.712;2024-01-15T00:49:45;3.30;81.60
48575;DHT22;34352;51.084;3.712;2024-01-15T00:55:41;3.00;87.80
48575;DHT22;34352;51.084;3.712;2024-01-15T00:58:11;3.20;86.00
48575;DHT22;34352;51.084;3.712;2024-01-15T01:00:40;3.20;87.90
48575;DHT22;34352;51.084;3.712;2024-01-15T01:03:38;3.20;86.90
48575;DHT22;34352;51.084;3.712;2024-01-15T01:06:17;3.20;88.30
48575;DHT22;34352;51.084;3.712;2024-01-15T01:09:02;3.90;85.30
48575;DHT22;34352;51.084;3.712;2024-01-15T01:21:34;2.50;91.10
48575;DHT22;34352;51.084;3.712;2024-01-15T01:27:31;2.80;91.30
48575;DHT22;34352;51.084;3.712;2024-01-15T01:30:15;3.20;90.70
48575;DHT22;34352;51.084;3.712;2024-01-15T01:33:00;3.70;91.90
48575;DHT22;34352;51.084;3.712;2024-01-15T01:35:37;3.00;92.00
48575;DHT22;34352;51.084;3.712;2024-01-15T01:38:13;3.50;92.20
48575;DHT22;34352;51.084;3.712;2024-01-15T01:40:44;3.10;91.60
48575;DHT22;34352;51.084;3.712;2024-01-15T01:43:21;3.50;90.30
48575;DHT22;34352;51.084;3.712;2024-01-15T01:48:53;3.10;92.00
48575;DHT22;34352;51.084;3.712;2024-01-15T01:51:34;3.60;91.70
48575;DHT22;34352;51.084;3.712;2024-01-15T01:54:21;3.00;92.20
48575;DHT22;34352;51.084;3.712;2024-01-15T01:56:48;2.30;91.60
48575;DHT22;34352;51.084;3.712;2024-01-15T01:59:51;3.10;92.10
48575;DHT22;34352;51.084;3.712;2024-01-15T02:02:20;3.20;91.80
48575;DHT22;34352;51.084;3.712;2024-01-15T02:08:21;3.10;91.80
48575;DHT22;34352;51.084;3.712;2024-01-15T02:10:53;2.80;90.90
48575;DHT22;34352;51.084;3.712;2024-01-15T02:13:40;2.90;91.00
48575;DHT22;34352;51.084;3.712;2024-01-15T02:19:22;3.40;91.20
48575;DHT22;34352;51.084;3.712;2024-01-15T02:21:56;4.20;90.70
48575;DHT22;34352;51.084;3.712;2024-01-15T02:24:24;4.20;91.30
48575;DHT22;34352;51.084;3.712;2024-01-15T02:27:13;2.80;91.20
48575;DHT22;34352;51.084;3.712;2024-01-15T02:32:45;2.90;92.10
48575;DHT22;34352;51.084;3.712;2024-01-15T02:38:55;2.90;92.00
48575;DHT22;34352;51.084;3.712;2024-01-15T02:44:54;2.80;91.50
48575;DHT22;34352;51.084;3.712;2024-01-15T02:57:47;3.40;91.60
48575;DHT22;34352;51.084;3.712;2024-01-15T03:00:22;2.70;90.70
48575;DHT22;34352;51.084;3.712;2024-01-15T03:06:27;2.30;90.40
48575;DHT22;34352;51.084;3.712;2024-01-15T03:08:53;3.20;85.50
48575;DHT22;34352;51.084;3.712;2024-01-15T03:11:51;3.80;88.30
48575;DHT22;34352;51.084;3.712;2024-01-15T03:14:38;3.10;90.00
48575;DHT22;34352;51.084;3.712;2024-01-15T03:17:35;3.10;90.10
48575;DHT22;34352;51.084;3.712;2024-01-15T03:20:04;3.00;90.10
48575;DHT22;34352;51.084;3.712;2024-01-15T03:23:03;2.90;90.70
48575;DHT22;34352;51.084;3.712;2024-01-15T03:25:48;2.80;91.40
48575;DHT22;34352;51.084;3.712;2024-01-15T03:28:18;2.80;91.80
48575;DHT22;34352;51.084;3.712;2024-01-15T03:30:53;2.20;91.30
48575;DHT22;34352;51.084;3.712;2024-01-15T03:36:38;2.50;92.00
48575;DHT22;34352;51.084;3.712;2024-01-15T03:39:08;3.80;89.90
48575;DHT22;34352;51.084;3.712;2024-01-15T03:41:42;3.10;90.00
48575;DHT22;34352;51.084;3.712;2024-01-15T03:44:27;2.90;90.20
48575;DHT22;34352;51.084;3.712;2024-01-15T03:46:59;3.00;90.10
48575;DHT22;34352;51.084;3.712;2024-01-15T03:49:43;3.10;90.50
48575;DHT22;34352;51.084;3.712;2024-01-15T03:52:35;3.50;91.90
48575;DHT22;34352;51.084;3.712;2024-01-15T03:55:09;2.90;92.10
48575;DHT22;34352;51.084;3.712;2024-01-15T04:04:03;2.30;93.30
48575;DHT22;34352;51.084;3.712;2024-01-15T04:06:46;2.90;92.90
48575;DHT22;34352;51.084;3.712;2024-01-15T04:09:23;2.50;92.90
48575;DHT22;34352;51.084;3.712;2024-01-15T04:12:03;2.40;94.60
48575;DHT22;34352;51.084;3.712;2024-01-15T04:14:39;1.50;93.70
48575;DHT22;34352;51.084;3.712;2024-01-15T04:17:27;2.70;93.50
48575;DHT22;34352;51.084;3.712;2024-01-15T04:20:00;1.90;94.20
48575;DHT22;34352;51.084;3.712;2024-01-15T04:22:30;2.90;92.00
48575;DHT22;34352;51.084;3.712;2024-01-15T04:24:59;4.00;93.00
48575;DHT22;34352;51.084;3.712;2024-01-15T04:27:26;2.70;91.80
48575;DHT22;34352;51.084;3.712;2024-01-15T04:32:53;2.70;92.50
48575;DHT22;34352;51.084;3.712;2024-01-15T04:35:39;2.70;92.00
48575;DHT22;34352;51.084;3.712;2024-01-15T04:38:30;2.20;92.80
48575;DHT22;34352;51.084;3.712;2024-01-15T04:44:19;2.00;92.80
48575;DHT22;34352;51.084;3.712;2024-01-15T04:50:14;3.30;92.60
48575;DHT22;34352;51.084;3.712;2024-01-15T04:56:06;2.60;93.00
48575;DHT22;34352;51.084;3.712;2024-01-15T04:59:11;2.70;92.20
48575;DHT22;34352;51.084;3.712;2024-01-15T05:05:02;1.70;92.50
48575;DHT22;34352;51.084;3.712;2024-01-15T05:08:05;3.00;91.70
48575;DHT22;34352;51.084;3.712;2024-01-15T05:14:14;2.50;92.10
48575;DHT22;34352;51.084;3.712;2024-01-15T05:17:14;2.50;91.90
48575;DHT22;34352;51.084;3.712;2024-01-15T05:19:53;3.10;92.40
48575;DHT22;34352;51.084;3.712;2024-01-15T05:26:05;2.20;93.10
48575;DHT22;34352;51.084;3.712;2024-01-15T05:32:08;1.80;93.50
48575;DHT22;34352;51.084;3.712;2024-01-15T05:34:50;1.90;92.10
48575;DHT22;34352;51.084;3.712;2024-01-15T05:37:31;2.10;93.60
48575;DHT22;34352;51.084;3.712;2024-01-15T05:40:02;2.20;92.60
48575;DHT22;34352;51.084;3.712;2024-01-15T05:42:42;2.00;92.50
48575;DHT22;34352;51.084;3.712;2024-01-15T05:52:35;1.90;92.90
48575;DHT22;34352;51.084;3.712;2024-01-15T05:55:21;0.90;92.90
48575;DHT22;34352;51.084;3.712;2024-01-15T05:58:14;1.20;91.40
48575;DHT22;34352;51.084;3.712;2024-01-15T06:00:45;1.50;91.00
48575;DHT22;34352;51.084;3.712;2024-01-15T06:03:34;1.40;92.20
48575;DHT22;34352;51.084;3.712;2024-01-15T06:06:14;1.50;92.60
48575;DHT22;34352;51.084;3.712;2024-01-15T06:08:40;0.90;91.20
48575;DHT22;34352;51.084;3.712;2024-01-15T06:11:12;3.10;90.90
48575;DHT22;34352;51.084;3.712;2024-01-15T06:13:47;2.70;91.50
48575;DHT22;34352;51.084;3.712;2024-01-15T06:16:34;2.90;91.90
48575;DHT22;34352;51.084;3.712;2024-01-15T06:19:09;1.80;91.40
48575;DHT22;34352;51.084;3.712;2024-01-15T06:24:53;1.70;91.20
48575;DHT22;34352;51.084;3.712;2024-01-15T06:27:22;1.80;90.10
48575;DHT22;34352;51.084;3.712;2024-01-15T06:29:54;2.70;86.70
48575;DHT22;34352;51.084;3.712;2024-01-15T06:32:43;1.80;85.10
48575;DHT22;34352;51.084;3.712;2024-01-15T06:35:22;2.10;83.70
48575;DHT22;34352;51.084;3.712;2024-01-15T06:37:59;1.80;83.70
48575;DHT22;34352;51.084;3.712;2024-01-15T06:40:37;2.20;86.40
48575;DHT22;34352;51.084;3.712;2024-01-15T06:43:17;1.90;83.40
48575;DHT22;34352;51.084;3.712;2024-01-15T06:45:43;2.20;85.00
48575;DHT22;34352;51.084;3.712;2024-01-15T06:48:24;1.90;83.40
48575;DHT22;34352;51.084;3.712;2024-01-15T06:50:50;2.10;81.80
48575;DHT22;34352;51.084;3.712;2024-01-15T06:53:19;2.10;76.90
48575;DHT22;34352;51.084;3.712;2024-01-15T06:55:48;2.00;76.70
48575;DHT22;34352;51.084;3.712;2024-01-15T06:58:53;2.10;80.70
48575;DHT22;34352;51.084;3.712;2024-01-15T07:01:21;2.00;80.00
48575;DHT22;34352;51.084;3.712;2024-01-15T07:04:04;2.00;78.80
48575;DHT22;34352;51.084;3.712;2024-01-15T07:06:38;1.90;79.20
48575;DHT22;34352;51.084;3.712;2024-01-15T07:09:23;1.90;78.70
48575;DHT22;34352;51.084;3.712;2024-01-15T07:12:04;2.00;80.10
48575;DHT22;34352;51.084;3.712;2024-01-15T07:14:35;2.10;76.90
48575;DHT22;34352;51.084;3.712;2024-01-15T07:17:11;2.50;73.90
48575;DHT22;34352;51.084;3.712;2024-01-15T07:20:15;1.90;73.10
48575;DHT22;34352;51.084;3.712;2024-01-15T07:22:50;2.10;76.10
48575;DHT22;34352;51.084;3.712;2024-01-15T07:28:28;1.60;73.70
48575;DHT22;34352;51.084;3.712;2024-01-15T07:31:05;2.10;72.80
48575;DHT22;34352;51.084;3.712;2024-01-15T07:33:34;3.30;67.30
48575;DHT22;34352;51.084;3.712;2024-01-15T07:36:04;2.00;66.10
48575;DHT22;34352;51.084;3.712;2024-01-15T07:38:42;2.00;67.70
48575;DHT22;34352;51.084;3.712;2024-01-15T07:41:09;2.50;67.20
48575;DHT22;34352;51.084;3.712;2024-01-15T07:43:47;2.20;67.50
48575;DHT22;34352;51.084;3.712;2024-01-15T07:49:35;2.10;71.10
48575;DHT22;34352;51.084;3.712;2024-01-15T07:55:23;2.70;70.30
48575;DHT22;34352;51.084;3.712;2024-01-15T07:57:50;2.60;67.10
48575;DHT22;34352;51.084;3.712;2024-01-15T08:00:20;2.80;66.50
48575;DHT22;34352;51.084;3.712;2024-01-15T08:02:46;2.00;65.60
48575;DHT22;34352;51.084;3.712;2024-01-15T08:05:39;2.50;64.90
48575;DHT22;34352;51.084;3.712;2024-01-15T08:08:27;2.20;66.50
48575;DHT22;34352;51.084;3.712;2024-01-15T08:10:56;2.40;64.70
48575;DHT22;34352;51.084;3.712;2024-01-15T08:16:43;2.50;61.10
48575;DHT22;34352;51.084;3.712;2024-01-15T08:19:14;2.50;57.50
48575;DHT22;34352;51.084;3.712;2024-01-15T08:21:41;2.90;56.10
48575;DHT22;34352;51.084;3.712;2024-01-15T08:24:47;3.00;55.90
48575;DHT22;34352;51.084;3.712;2024-01-15T08:27:29;2.40;60.20
48575;DHT22;34352;51.084;3.712;2024-01-15T08:30:11;2.30;57.60
48575;DHT22;34352;51.084;3.712;2024-01-15T08:32:59;2.50;59.30
48575;DHT22;34352;51.084;3.712;2024-01-15T08:39:11;3.40;43.40
48575;DHT22;34352;51.084;3.712;2024-01-15T08:41:38;3.90;34.80
48575;DHT22;34352;51.084;3.712;2024-01-15T08:44:07;4.20;24.20
48575;DHT22;34352;51.084;3.712;2024-01-15T08:47:02;4.60;1.00
48575;DHT22;34352;51.084;3.712;2024-01-15T09:39:12;6.80;1.00
48575;DHT22;34352;51.084;3.712;2024-01-15T09:41:59;5.20;1.00
48575;DHT22;34352;51.084;3.712;2024-01-15T09:44:28;5.60;1.00
48575;DHT22;34352;51.084;3.712;2024-01-15T09:47:01;5.40;1.00
48575;DHT22;34352;51.084;3.712;2024-01-15T09:52:48;4.80;1.00
48575;DHT22;34352;51.084;3.712;2024-01-15T09:55:26;5.10;1.00
48575;DHT22;34352;51.084;3.712;2024-01-15T10:04:43;6.40;1.00
48575;DHT22;34352;51.084;3.712;2024-01-15T10:07:30;6.30;1.00
48575;DHT22;34352;51.084;3.712;2024-01-15T11:02:36;7.00;1.00
48575;DHT22;34352;51.084;3.712;2024-01-15T11:08:01;7.50;1.00
48575;DHT22;34352;51.084;3.712;2024-01-15T11:44:39;8.00;1.00
48575;DHT22;34352;51.084;3.712;2024-01-15T12:31:32;5.20;1.00
48575;DHT22;34352;51.084;3.712;2024-01-15T14:25:09;5.30;33.60
48575;DHT22;34352;51.084;3.712;2024-01-15T14:28:06;5.60;35.30
48575;DHT22;34352;51.084;3.712;2024-01-15T14:34:42;5.60;25.70
48575;DHT22;34352;51.084;3.712;2024-01-15T14:38:04;5.70;19.40
48575;DHT22;34352;51.084;3.712;2024-01-15T14:43:56;5.20;1.00
48575;DHT22;34352;51.084;3.712;2024-01-15T14:46:40;4.70;1.00
48575;DHT22;34352;51.084;3.712;2024-01-15T14:49:11;5.00;1.00
48575;DHT22;34352;51.084;3.712;2024-01-15T14:54:47;5.80;26.70
48575;DHT22;34352;51.084;3.712;2024-01-15T14:57:30;3.50;40.80
48575;DHT22;34352;51.084;3.712;2024-01-15T15:03:49;2.90;51.30
48575;DHT22;34352;51.084;3.712;2024-01-15T15:06:32;2.90;57.50
48575;DHT22;34352;51.084;3.712;2024-01-15T15:09:26;3.30;57.70
48575;DHT22;34352;51.084;3.712;2024-01-15T15:14:58;3.60;46.60
48575;DHT22;34352;51.084;3.712;2024-01-15T15:17:38;3.30;39.30
48575;DHT22;34352;51.084;3.712;2024-01-15T15:20:13;3.80;42.10
48575;DHT22;34352;51.084;3.712;2024-01-15T15:22:51;3.80;46.40
48575;DHT22;34352;51.084;3.712;2024-01-15T15:25:43;5.20;47.80
48575;DHT22;34352;51.084;3.712;2024-01-15T15:28:43;3.90;46.70
48575;DHT22;34352;51.084;3.712;2024-01-15T15:31:32;3.90;43.70
48575;DHT22;34352;51.084;3.712;2024-01-15T15:34:08;4.10;42.50
48575;DHT22;34352;51.084;3.712;2024-01-15T15:36:56;4.20;40.90
48575;DHT22;34352;51.084;3.712;2024-01-15T15:45:36;4.40;25.70
48575;DHT22;34352;51.084;3.712;2024-01-15T15:54:04;4.10;15.00
48575;DHT22;34352;51.084;3.712;2024-01-15T16:00:00;3.80;18.50
48575;DHT22;34352;51.084;3.712;2024-01-15T16:02:38;3.70;23.50
48575;DHT22;34352;51.084;3.712;2024-01-15T16:05:11;3.70;19.70
48575;DHT22;34352;51.084;3.712;2024-01-15T16:10:46;4.20;22.00
48575;DHT22;34352;51.084;3.712;2024-01-15T16:13:24;4.50;19.70
48575;DHT22;34352;51.084;3.712;2024-01-15T16:15:51;3.60;21.10
48575;DHT22;34352;51.084;3.712;2024-01-15T16:20:56;3.50;21.20
48575;DHT22;34352;51.084;3.712;2024-01-15T16:26:45;3.10;21.00
48575;DHT22;34352;51.084;3.712;2024-01-15T16:29:31;3.60;19.20
48575;DHT22;34352;51.084;3.712;2024-01-15T16:32:03;3.60;15.30
48575;DHT22;34352;51.084;3.712;2024-01-15T16:34:33;3.40;18.50
48575;DHT22;34352;51.084;3.712;2024-01-15T16:37:24;3.40;18.50
48575;DHT22;34352;51.084;3.712;2024-01-15T16:50:06;3.20;21.80
48575;DHT22;34352;51.084;3.712;2024-01-15T16:52:39;3.20;20.90
48575;DHT22;34352;51.084;3.712;2024-01-15T16:55:06;3.20;20.50
48575;DHT22;34352;51.084;3.712;2024-01-15T16:57:38;3.20;21.00
48575;DHT22;34352;51.084;3.712;2024-01-15T17:03:02;3.30;27.70
48575;DHT22;34352;51.084;3.712;2024-01-15T17:08:36;3.30;24.50
48575;DHT22;34352;51.084;3.712;2024-01-15T17:11:09;3.90;17.80
48575;DHT22;34352;51.084;3.712;2024-01-15T17:13:38;3.30;18.60
48575;DHT22;34352;51.084;3.712;2024-01-15T17:19:31;3.30;18.30
48575;DHT22;34352;51.084;3.712;2024-01-15T17:22:18;3.10;16.90
48575;DHT22;34352;51.084;3.712;2024-01-15T17:24:52;3.00;23.80
48575;DHT22;34352;51.084;3.712;2024-01-15T17:27:21;3.10;21.10
48575;DHT22;34352;51.084;3.712;2024-01-15T17:30:02;3.10;23.00
48575;DHT22;34352;51.084;3.712;2024-01-15T17:32:47;3.10;28.70
48575;DHT22;34352;51.084;3.712;2024-01-15T17:35:29;3.30;24.50
48575;DHT22;34352;51.084;3.712;2024-01-15T17:38:00;3.50;11.60
48575;DHT22;34352;51.084;3.712;2024-01-15T17:40:40;3.60;17.00
48575;DHT22;34352;51.084;3.712;2024-01-15T17:43:11;3.50;13.10
48575;DHT22;34352;51.084;3.712;2024-01-15T17:45:42;3.20;11.30
48575;DHT22;34352;51.084;3.712;2024-01-15T17:48:09;3.70;10.30
48575;DHT22;34352;51.084;3.712;2024-01-15T18:42:10;3.30;3.60
48575;DHT22;34352;51.084;3.712;2024-01-15T18:44:47;3.30;2.10
48575;DHT22;34352;51.084;3.712;2024-01-15T18:47:29;3.30;1.00
48575;DHT22;34352;51.084;3.712;2024-01-15T18:49:58;3.30;1.00
48575;DHT22;34352;51.084;3.712;2024-01-15T18:57:58;3.50;1.00
48575;DHT22;34352;51.084;3.712;2024-01-15T19:03:10;3.40;1.00
48575;DHT22;34352;51.084;3.712;2024-01-15T19:09:12;3.40;1.00
48575;DHT22;34352;51.084;3.712;2024-01-15T19:11:54;3.40;1.00
48575;DHT22;34352;51.084;3.712;2024-01-15T19:14:54;2.90;1.00
48575;DHT22;34352;51.084;3.712;2024-01-15T19:17:26;3.00;3.50
48575;DHT22;34352;51.084;3.712;2024-01-15T19:20:12;3.40;6.10
48575;DHT22;34352;51.084;3.712;2024-01-15T19:22:58;3.30;6.10
48575;DHT22;34352;51.084;3.712;2024-01-15T19:25:26;3.20;3.00
48575;DHT22;34352;51.084;3.712;2024-01-15T19:27:53;3.20;2.40
48575;DHT22;34352;51.084;3.712;2024-01-15T19:30:34;3.30;1.00
48575;DHT22;34352;51.084;3.712;2024-01-15T19:33:05;3.30;1.00
48575;DHT22;34352;51.084;3.712;2024-01-15T19:35:33;3.30;2.30
48575;DHT22;34352;51.084;3.712;2024-01-15T19:38:08;2.70;1.00
48575;DHT22;34352;51.084;3.712;2024-01-15T19:40:54;3.30;2.50
48575;DHT22;34352;51.084;3.712;2024-01-15T19:46:57;3.30;2.80
48575;DHT22;34352;51.084;3.712;2024-01-15T19:49:39;2.20;1.00
48575;DHT22;34352;51.084;3.712;2024-01-15T19:52:13;3.20;1.00
48575;DHT22;34352;51.084;3.712;2024-01-15T20:00:43;3.20;2.40
48575;DHT22;34352;51.084;3.712;2024-01-15T20:03:43;3.20;2.70
48575;DHT22;34352;51.084;3.712;2024-01-15T20:09:01;3.30;1.00
48575;DHT22;34352;51.084;3.712;2024-01-15T20:11:27;2.90;1.00
48575;DHT22;34352;51.084;3.712;2024-01-15T20:13:56;3.30;1.00
48575;DHT22;34352;51.084;3.712;2024-01-15T20:16:23;2.70;1.00
48575;DHT22;34352;51.084;3.712;2024-01-15T20:18:52;3.10;1.00
48575;DHT22;34352;51.084;3.712;2024-01-15T20:23:56;3.20;1.00
48575;DHT22;34352;51.084;3.712;2024-01-15T20:26:31;3.20;1.00
48575;DHT22;34352;51.084;3.712;2024-01-15T20:29:02;2.90;1.00
48575;DHT22;34352;51.084;3.712;2024-01-15T20:31:33;2.30;1.00
48575;DHT22;34352;51.084;3.712;2024-01-15T20:34:01;3.70;1.00
48575;DHT22;34352;51.084;3.712;2024-01-15T20:36:38;3.10;1.00
48575;DHT22;34352;51.084;3.712;2024-01-15T20:39:15;3.10;1.00
48575;DHT22;34352;51.084;3.712;2024-01-15T20:41:49;3.10;1.00
48575;DHT22;34352;51.084;3.712;2024-01-15T20:44:24;2.80;1.00
48575;DHT22;34352;51.084;3.712;2024-01-15T20:46:56;2.90;1.00
48575;DHT22;34352;51.084;3.712;2024-01-15T20:49:39;3.50;1.00
48575;DHT22;34352;51.084;3.712;2024-01-15T20:52:12;3.10;1.00
48575;DHT22;34352;51.084;3.712;2024-01-15T20:54:45;2.70;1.00
48575;DHT22;34352;51.084;3.712;2024-01-15T20:57:12;3.80;1.00
48575;DHT22;34352;51.084;3.712;2024-01-15T20:59:42;3.00;1.00
48575;DHT22;34352;51.084;3.712;2024-01-15T21:14:05;2.60;1.00
48575;DHT22;34352;51.084;3.712;2024-01-15T21:23:17;3.10;1.00
48575;DHT22;34352;51.084;3.712;2024-01-15T21:28:36;3.20;1.00
48575;DHT22;34352;51.084;3.712;2024-01-15T21:31:04;3.20;1.00
48575;DHT22;34352;51.084;3.712;2024-01-15T21:39:11;3.30;1.00
48575;DHT22;34352;51.084;3.712;2024-01-15T21:41:45;3.30;1.00
48575;DHT22;34352;51.084;3.712;2024-01-15T21:44:26;3.30;1.00
48575;DHT22;34352;51.084;3.712;2024-01-15T21:46:54;3.50;1.00
48575;DHT22;34352;51.084;3.712;2024-01-15T21:49:44;3.30;1.00
48575;DHT22;34352;51.084;3.712;2024-01-15T21:52:14;3.10;1.20
48575;DHT22;34352;51.084;3.712;2024-01-15T21:54:47;3.20;1.00
48575;DHT22;34352;51.084;3.712;2024-01-15T22:00:35;2.90;10.60
48575;DHT22;34352;51.084;3.712;2024-01-15T22:03:04;3.20;12.00
48575;DHT22;34352;51.084;3.712;2024-01-15T22:05:31;2.80;10.60
48575;DHT22;34352;51.084;3.712;2024-01-15T22:08:09;3.80;14.00
48575;DHT22;34352;51.084;3.712;2024-01-15T22:14:04;2.80;18.60
48575;DHT22;34352;51.084;3.712;2024-01-15T22:19:49;2.80;16.90
48575;DHT22;34352;51.084;3.712;2024-01-15T22:22:21;3.40;17.00
48575;DHT22;34352;51.084;3.712;2024-01-15T22:28:13;2.30;12.50
48575;DHT22;34352;51.084;3.712;2024-01-15T22:31:15;2.50;11.90
48575;DHT22;34352;51.084;3.712;2024-01-15T22:33:51;2.90;10.30
48575;DHT22;34352;51.084;3.712;2024-01-15T22:39:03;2.70;14.70
48575;DHT22;34352;51.084;3.712;2024-01-15T22:41:51;1.80;15.40
48575;DHT22;34352;51.084;3.712;2024-01-15T22:44:45;2.70;16.30
48575;DHT22;34352;51.084;3.712;2024-01-15T22:53:38;3.80;11.70
48575;DHT22;34352;51.084;3.712;2024-01-15T22:56:19;2.90;12.20
48575;DHT22;34352;51.084;3.712;2024-01-15T22:58:58;2.90;10.40
48575;DHT22;34352;51.084;3.712;2024-01-15T23:04:01;3.00;14.30
48575;DHT22;34352;51.084;3.712;2024-01-15T23:06:57;2.90;11.40
48575;DHT22;34352;51.084;3.712;2024-01-15T23:09:48;2.60;17.60
48575;DHT22;34352;51.084;3.712;2024-01-15T23:12:15;2.70;22.60
48575;DHT22;34352;51.084;3.712;2024-01-15T23:14:42;2.40;17.40
48575;DHT22;34352;51.084;3.712;2024-01-15T23:17:19;2.40;22.40
48575;DHT22;34352;51.084;3.712;2024-01-15T23:20:06;2.70;25.40
48575;DHT22;34352;51.084;3.712;2024-01-15T23:28:37;2.30;36.50
48575;DHT22;34352;51.084;3.712;2024-01-15T23:31:05;2.80;31.80
48575;DHT22;34352;51.084;3.712;2024-01-15T23:33:46;2.20;37.10
48575;DHT22;34352;51.084;3.712;2024-01-15T23:36:18;1.00;37.40
48575;DHT22;34352;51.084;3.712;2024-01-15T23:39:13;2.10;34.70
48575;DHT22;34352;51.084;3.712;2024-01-15T23:44:40;1.50;37.50
48575;DHT22;34352;51.084;3.712;2024-01-15T23:47:44;2.00;34.80
48575;DHT22;34352;51.084;3.712;2024-01-15T23:50:12;1.70;38.60
48575;DHT22;34352;51.084;3.712;2024-01-15T23:52:46;2.10;37.30
48575;DHT22;34352;51.084;3.712;2024-01-15T23:55:23;2.00;37.10
48575;DHT22;34352;51.084;3.712;2024-01-15T23:57:58;1.60;40.70
